createdAt,value
2022-08-19T00:01:43.462Z,24.00
2022-08-19T00:04:13.339Z,27.48
2022-08-19T00:06:41.628Z,21.90
2022-08-19T00:09:10.865Z,21.27
2022-08-19T00:11:38.441Z,23.85
2022-08-19T00:14:10.771Z,23.65
2022-08-19T00:16:39.596Z,22.67
2022-08-19T00:19:07.057Z,21.83
2022-08-19T00:21:33.648Z,22.15
2022-08-19T00:24:04.448Z,22.17
2022-08-19T00:26:31.101Z,22.35
2022-08-19T00:28:57.610Z,20.83
2022-08-19T00:31:24.174Z,22.15
2022-08-19T00:33:51.393Z,22.40
2022-08-19T00:36:18.626Z,21.55
2022-08-19T00:38:45.522Z,22.40
2022-08-19T00:41:18.314Z,21.42
2022-08-19T00:44:01.396Z,24.95
2022-08-19T00:46:29.017Z,25.60
2022-08-19T00:48:58.303Z,24.77
2022-08-19T00:51:28.155Z,24.88
2022-08-19T00:53:59.915Z,21.02
2022-08-19T00:56:27.957Z,17.35
2022-08-19T00:58:57.557Z,16.85
2022-08-19T01:01:24.280Z,15.90
2022-08-19T01:03:58.169Z,14.70
2022-08-19T01:06:26.653Z,19.67
2022-08-19T01:08:54.880Z,20.73
2022-08-19T01:11:22.073Z,18.48
2022-08-19T01:13:54.271Z,17.80
2022-08-19T01:16:23.891Z,15.95
2022-08-19T01:18:51.097Z,16.92
2022-08-19T01:21:27.958Z,14.25
2022-08-19T01:23:55.187Z,14.52
2022-08-19T01:26:25.868Z,15.38
2022-08-19T01:28:59.511Z,13.82
2022-08-19T01:31:33.101Z,15.15
2022-08-19T01:34:01.858Z,15.27
2022-08-19T01:36:38.424Z,20.02
2022-08-19T01:42:13.716Z,22.20
2022-08-19T01:44:42.078Z,22.88
2022-08-19T01:47:10.512Z,20.30
2022-08-19T01:49:37.903Z,16.77
2022-08-19T01:52:05.666Z,16.45
2022-08-19T01:54:34.114Z,17.73
2022-08-19T01:57:11.855Z,17.90
2022-08-19T01:59:38.650Z,18.15
2022-08-19T02:02:08.431Z,15.95
2022-08-19T02:04:39.159Z,24.73
2022-08-19T02:07:06.946Z,28.38
2022-08-19T02:09:33.638Z,17.90
2022-08-19T02:12:00.196Z,18.27
2022-08-19T02:14:28.039Z,18.45
2022-08-19T02:16:54.573Z,26.63
2022-08-19T02:19:21.264Z,27.05
2022-08-19T02:21:48.004Z,32.97
2022-08-19T02:24:15.141Z,27.27
2022-08-19T02:26:41.680Z,27.48
2022-08-19T02:29:08.643Z,24.45
2022-08-19T02:31:35.223Z,18.50
2022-08-19T02:34:03.338Z,19.67
2022-08-19T02:36:31.154Z,19.05
2022-08-19T02:38:57.664Z,24.60
2022-08-19T02:41:29.797Z,22.25
2022-08-19T02:44:22.786Z,22.05
2022-08-19T02:46:51.704Z,27.75
2022-08-19T02:49:19.414Z,43.22
2022-08-19T02:51:47.038Z,30.52
2022-08-19T02:54:17.048Z,38.55
2022-08-19T02:56:44.367Z,45.10
2022-08-19T02:59:12.280Z,52.25
2022-08-19T03:01:41.818Z,32.08
2022-08-19T03:04:10.335Z,33.70
2022-08-19T03:06:39.382Z,34.13
2022-08-19T03:09:06.041Z,32.88
2022-08-19T03:11:34.197Z,47.40
2022-08-19T03:14:02.183Z,33.03
2022-08-19T03:16:33.534Z,43.25
2022-08-19T03:19:02.460Z,42.05
2022-08-19T03:21:34.244Z,31.05
2022-08-19T03:24:05.918Z,35.70
2022-08-19T03:26:33.126Z,52.85
2022-08-19T03:29:04.881Z,33.65
2022-08-19T03:31:43.731Z,33.47
2022-08-19T03:34:28.570Z,90.43
2022-08-19T03:36:57.931Z,38.17
2022-08-19T03:39:26.946Z,57.67
2022-08-19T03:42:32.401Z,29.70
2022-08-19T03:44:47.770Z,25.73
2022-08-19T03:47:17.778Z,40.22
2022-08-19T03:49:44.953Z,28.88
2022-08-19T03:52:11.761Z,29.70
2022-08-19T03:54:39.519Z,24.42
2022-08-19T03:57:06.806Z,24.33
2022-08-19T03:59:36.183Z,23.25
2022-08-19T04:02:09.365Z,27.13
2022-08-19T04:04:37.931Z,34.05
2022-08-19T04:07:04.772Z,38.17
2022-08-19T04:09:31.411Z,40.42
2022-08-19T04:11:58.706Z,37.38
2022-08-19T04:14:31.113Z,152.90
2022-08-19T04:16:58.374Z,32.97
2022-08-19T04:19:25.709Z,31.17
2022-08-19T04:21:54.722Z,28.50
2022-08-19T04:24:24.867Z,29.35
2022-08-19T04:26:51.767Z,26.55
2022-08-19T04:29:22.748Z,29.88
2022-08-19T04:31:50.567Z,25.58
2022-08-19T04:34:23.277Z,29.40
2022-08-19T04:36:54.364Z,27.05
2022-08-19T04:39:47.176Z,26.83
2022-08-19T04:42:33.305Z,31.58
2022-08-19T04:45:00.086Z,28.98
2022-08-19T04:47:48.272Z,28.30
2022-08-19T04:50:13.438Z,30.38
2022-08-19T04:52:43.705Z,29.02
2022-08-19T04:55:14.615Z,28.88
2022-08-19T04:57:41.498Z,32.47
2022-08-19T05:00:10.360Z,28.25
2022-08-19T05:02:37.142Z,29.50
2022-08-19T05:05:04.226Z,34.60
2022-08-19T05:07:31.797Z,32.30
2022-08-19T05:09:59.288Z,31.27
2022-08-19T05:12:28.845Z,38.20
2022-08-19T05:14:57.888Z,29.45
2022-08-19T05:17:27.967Z,32.72
2022-08-19T05:20:15.139Z,33.95
2022-08-19T05:22:42.849Z,30.85
2022-08-19T05:25:14.625Z,33.05
2022-08-19T05:27:42.651Z,33.03
2022-08-19T05:30:10.346Z,35.75
2022-08-19T05:32:37.005Z,37.83
2022-08-19T05:35:05.591Z,34.38
2022-08-19T05:37:32.216Z,33.72
2022-08-19T05:39:59.055Z,35.83
2022-08-19T05:42:27.442Z,33.47
2022-08-19T05:44:54.475Z,32.95
2022-08-19T05:47:21.228Z,31.00
2022-08-19T05:49:50.856Z,32.10
2022-08-19T05:52:18.914Z,31.83
2022-08-19T05:54:48.680Z,34.72
2022-08-19T05:57:19.632Z,34.83
2022-08-19T05:59:49.179Z,36.28
2022-08-19T06:02:15.898Z,39.20
2022-08-19T06:04:45.635Z,45.85
2022-08-19T06:07:13.088Z,51.33
2022-08-19T06:09:41.310Z,57.28
2022-08-19T06:12:10.197Z,65.40
2022-08-19T06:14:42.465Z,63.03
2022-08-19T06:17:09.252Z,68.95
2022-08-19T06:19:41.047Z,63.95
2022-08-19T06:22:09.009Z,69.35
2022-08-19T06:24:37.215Z,64.03
2022-08-19T06:27:04.273Z,66.95
2022-08-19T06:29:31.144Z,65.82
2022-08-19T06:32:00.577Z,61.58
2022-08-19T06:34:30.085Z,63.35
2022-08-19T06:36:58.572Z,58.75
2022-08-19T06:39:28.693Z,63.00
2022-08-19T06:41:59.586Z,59.72
2022-08-19T06:44:38.442Z,58.30
2022-08-19T06:47:14.642Z,60.58
2022-08-19T06:49:41.847Z,55.83
2022-08-19T06:52:08.923Z,59.22
2022-08-19T06:54:40.593Z,60.13
2022-08-19T06:57:24.249Z,55.03
2022-08-19T06:59:50.913Z,53.40
2022-08-19T07:04:47.104Z,50.85
2022-08-19T07:07:21.014Z,52.85
2022-08-19T07:09:52.217Z,51.25
2022-08-19T07:12:25.595Z,47.83
2022-08-19T07:14:53.701Z,47.90
2022-08-19T07:17:21.667Z,46.25
2022-08-19T07:19:48.585Z,48.58
2022-08-19T07:22:15.885Z,46.03
2022-08-19T07:24:45.354Z,46.75
2022-08-19T07:27:24.382Z,47.97
2022-08-19T07:29:56.243Z,56.55
2022-08-19T07:32:28.427Z,48.80
2022-08-19T07:34:56.787Z,48.85
2022-08-19T07:37:32.052Z,47.85
2022-08-19T07:39:59.748Z,43.60
2022-08-19T07:42:26.496Z,43.50
2022-08-19T07:44:54.097Z,42.33
2022-08-19T07:47:48.197Z,47.83
2022-08-19T07:50:10.252Z,50.55
2022-08-19T07:52:40.247Z,45.72
2022-08-19T07:55:11.334Z,44.97
2022-08-19T07:57:56.185Z,44.45
2022-08-19T08:00:24.262Z,44.97
2022-08-19T08:02:52.182Z,45.13
2022-08-19T08:05:44.324Z,41.13
2022-08-19T08:08:31.408Z,41.92
2022-08-19T08:10:59.483Z,43.50
2022-08-19T08:13:36.045Z,42.53
2022-08-19T08:16:03.828Z,44.88
2022-08-19T08:18:30.745Z,40.13
2022-08-19T08:20:58.156Z,39.15
2022-08-19T08:23:27.802Z,35.95
2022-08-19T08:25:58.847Z,40.88
2022-08-19T08:28:29.630Z,36.33
2022-08-19T08:30:58.224Z,30.40
2022-08-19T08:33:34.353Z,30.95
2022-08-19T08:36:11.852Z,34.08
2022-08-19T08:38:40.211Z,32.78
2022-08-19T08:41:29.087Z,31.15
2022-08-19T08:43:58.239Z,30.65
2022-08-19T08:46:43.150Z,26.73
2022-08-19T08:49:34.254Z,26.98
2022-08-19T08:52:08.294Z,26.95
2022-08-19T08:54:40.250Z,23.92
2022-08-19T08:57:16.509Z,25.58
2022-08-19T08:59:49.931Z,22.08
2022-08-19T09:02:16.906Z,23.52
2022-08-19T09:04:44.117Z,24.88
2022-08-19T09:07:34.848Z,26.67
2022-08-19T09:10:45.180Z,19.50
2022-08-19T09:13:32.213Z,23.92
2022-08-19T09:16:10.314Z,22.85
2022-08-19T09:18:43.029Z,22.10
2022-08-19T09:21:09.952Z,24.88
2022-08-19T09:23:41.625Z,24.00
2022-08-19T09:26:16.588Z,23.92
2022-08-19T09:28:45.320Z,25.08
2022-08-19T09:31:19.690Z,27.20
2022-08-19T09:33:52.288Z,27.92
2022-08-19T09:36:34.597Z,30.75
2022-08-19T09:39:02.206Z,29.15
2022-08-19T09:41:29.889Z,29.75
2022-08-19T09:44:00.867Z,32.50
2022-08-19T09:46:31.192Z,32.08
2022-08-19T09:49:06.177Z,33.80
2022-08-19T09:51:34.004Z,38.95
2022-08-19T09:54:04.879Z,32.30
2022-08-19T09:56:32.711Z,30.73
2022-08-19T09:59:01.458Z,35.22
2022-08-19T10:01:30.888Z,31.75
2022-08-19T10:04:01.298Z,31.90
2022-08-19T10:06:38.170Z,32.10
2022-08-19T10:09:15.430Z,30.52
2022-08-19T10:11:52.251Z,31.42
2022-08-19T10:14:24.782Z,23.42
2022-08-19T10:16:52.737Z,30.58
2022-08-19T10:19:26.027Z,22.98
2022-08-19T10:21:53.825Z,21.73
2022-08-19T10:24:25.405Z,24.27
2022-08-19T10:26:57.134Z,22.90
2022-08-19T10:29:32.448Z,26.42
2022-08-19T10:32:09.402Z,24.13
2022-08-19T10:34:48.179Z,22.45
2022-08-19T10:37:15.064Z,22.83
2022-08-19T10:39:48.833Z,20.13
2022-08-19T10:42:17.119Z,25.15
2022-08-19T10:44:43.676Z,29.73
2022-08-19T10:47:17.914Z,24.17
2022-08-19T10:50:12.526Z,23.50
2022-08-19T10:52:49.161Z,24.67
2022-08-19T10:55:41.971Z,24.35
2022-08-19T10:58:18.096Z,24.50
2022-08-19T11:00:52.797Z,22.33
2022-08-19T11:03:19.926Z,22.98
2022-08-19T11:05:46.581Z,28.92
2022-08-19T11:08:23.237Z,26.48
2022-08-19T11:10:57.753Z,26.00
2022-08-19T11:13:25.479Z,24.00
2022-08-19T11:16:07.682Z,23.77
2022-08-19T11:18:39.703Z,25.52
2022-08-19T11:21:12.010Z,28.35
2022-08-19T11:23:38.944Z,23.55
2022-08-19T11:26:05.853Z,22.15
2022-08-19T11:28:32.603Z,24.13
2022-08-19T11:30:59.208Z,27.05
2022-08-19T11:33:31.441Z,23.98
2022-08-19T11:36:00.180Z,25.83
2022-08-19T11:38:27.341Z,26.88
2022-08-19T11:40:59.338Z,31.67
2022-08-19T11:43:32.391Z,29.02
2022-08-19T11:46:07.821Z,27.15
2022-08-19T11:48:35.526Z,26.13
2022-08-19T11:51:07.061Z,22.00
2022-08-19T11:53:37.915Z,21.48
2022-08-19T11:56:05.647Z,20.65
2022-08-19T11:58:32.377Z,22.63
2022-08-19T12:00:58.949Z,24.88
2022-08-19T12:03:27.394Z,20.15
2022-08-19T12:05:54.097Z,23.08
2022-08-19T12:08:20.681Z,23.00
2022-08-19T12:10:47.274Z,21.05
2022-08-19T12:13:19.585Z,24.00
2022-08-19T12:15:48.244Z,18.75
2022-08-19T12:18:15.714Z,15.55
2022-08-19T12:20:43.984Z,19.15
2022-08-19T12:23:11.775Z,19.13
2022-08-19T12:25:51.115Z,16.52
2022-08-19T12:28:18.515Z,13.75
2022-08-19T12:30:45.101Z,15.55
2022-08-19T12:33:15.509Z,19.60
2022-08-19T12:35:45.751Z,19.92
2022-08-19T12:38:12.491Z,17.38
2022-08-19T12:40:40.965Z,16.70
2022-08-19T12:43:12.551Z,18.45
2022-08-19T12:45:39.123Z,19.63
2022-08-19T12:48:32.880Z,21.40
2022-08-19T12:50:55.130Z,19.73
2022-08-19T12:53:24.997Z,18.13
2022-08-19T12:56:01.348Z,20.60
2022-08-19T12:58:29.798Z,18.55
2022-08-19T13:00:56.488Z,18.20
2022-08-19T13:03:29.911Z,18.35
2022-08-19T13:05:56.780Z,21.05
2022-08-19T13:08:23.569Z,20.60
2022-08-19T13:10:51.485Z,24.38
2022-08-19T13:13:22.806Z,26.58
2022-08-19T13:15:49.462Z,20.80
2022-08-19T13:18:15.988Z,19.00
2022-08-19T13:20:42.867Z,22.45
2022-08-19T13:23:20.684Z,19.83
2022-08-19T13:25:57.518Z,18.75
2022-08-19T13:28:29.267Z,17.40
2022-08-19T13:31:14.406Z,18.00
2022-08-19T13:33:41.702Z,17.17
2022-08-19T13:36:08.724Z,23.67
2022-08-19T13:38:35.957Z,18.35
2022-08-19T13:41:10.953Z,17.30
2022-08-19T13:43:40.859Z,18.25
2022-08-19T13:46:12.594Z,19.40
2022-08-19T13:48:39.099Z,21.77
2022-08-19T13:51:06.326Z,17.60
2022-08-19T13:53:32.895Z,18.48
2022-08-19T13:55:59.774Z,22.73
2022-08-19T13:58:26.552Z,24.13
2022-08-19T14:00:53.312Z,21.45
2022-08-19T14:03:20.713Z,22.20
2022-08-19T14:05:47.641Z,21.23
2022-08-19T14:08:15.090Z,23.58
2022-08-19T14:10:43.605Z,21.42
2022-08-19T14:13:15.567Z,21.83
2022-08-19T14:15:42.360Z,22.02
2022-08-19T14:18:08.845Z,24.02
2022-08-19T14:20:36.199Z,23.55
2022-08-19T14:23:08.690Z,30.02
2022-08-19T14:25:35.405Z,27.20
2022-08-19T14:28:02.356Z,27.58
2022-08-19T14:30:31.862Z,23.98
2022-08-19T14:33:15.849Z,24.70
2022-08-19T14:35:45.870Z,22.42
2022-08-19T14:38:18.228Z,18.58
2022-08-19T14:40:52.941Z,16.85
2022-08-19T14:43:22.983Z,18.58
2022-08-19T14:45:49.558Z,21.63
2022-08-19T14:48:19.430Z,17.75
2022-08-19T14:50:47.336Z,14.85
2022-08-19T14:53:17.508Z,16.15
2022-08-19T14:55:46.756Z,14.68
2022-08-19T14:58:29.203Z,16.23
2022-08-19T15:00:58.264Z,15.68
2022-08-19T15:03:26.935Z,17.45
2022-08-19T15:05:53.879Z,15.57
2022-08-19T15:08:24.451Z,14.52
2022-08-19T15:10:51.891Z,19.13
2022-08-19T15:13:23.127Z,18.73
2022-08-19T15:15:49.810Z,16.48
2022-08-19T15:18:16.446Z,16.83
2022-08-19T15:20:44.477Z,16.20
2022-08-19T15:23:15.967Z,16.40
2022-08-19T15:25:43.199Z,16.58
2022-08-19T15:28:13.733Z,15.32
2022-08-19T15:30:41.366Z,15.77
2022-08-19T15:33:15.211Z,17.20
2022-08-19T15:35:43.318Z,19.13
2022-08-19T15:38:13.829Z,15.68
2022-08-19T15:40:42.542Z,20.17
2022-08-19T15:43:13.324Z,17.08
2022-08-19T15:45:40.214Z,18.13
2022-08-19T15:48:06.961Z,16.98
2022-08-19T15:50:33.985Z,17.30
2022-08-19T15:53:17.784Z,16.58
2022-08-19T15:55:45.667Z,18.15
2022-08-19T15:58:32.796Z,21.95
2022-08-19T16:01:26.992Z,21.05
2022-08-19T16:04:15.964Z,19.90
2022-08-19T16:06:49.187Z,22.15
2022-08-19T16:09:17.493Z,20.17
2022-08-19T16:11:46.434Z,20.63
2022-08-19T16:14:16.165Z,19.05
2022-08-19T16:16:44.499Z,18.05
2022-08-19T16:19:12.213Z,20.65
2022-08-19T16:21:41.890Z,17.35
2022-08-19T16:24:13.019Z,18.92
2022-08-19T16:26:40.748Z,14.25
2022-08-19T16:29:13.136Z,15.50
2022-08-19T16:31:44.306Z,12.80
2022-08-19T16:34:11.699Z,13.30
2022-08-19T16:36:41.701Z,17.13
2022-08-19T16:39:10.613Z,15.73
2022-08-19T16:41:37.762Z,16.08
2022-08-19T16:44:10.230Z,18.60
2022-08-19T16:46:37.304Z,18.38
2022-08-19T16:49:05.156Z,19.23
2022-08-19T16:51:33.643Z,18.65
2022-08-19T16:54:04.822Z,18.02
2022-08-19T16:56:31.482Z,21.05
2022-08-19T16:59:01.077Z,18.08
2022-08-19T17:01:29.057Z,20.25
2022-08-19T17:03:58.457Z,20.50
2022-08-19T17:06:28.327Z,22.17
2022-08-19T17:08:59.539Z,20.65
2022-08-19T17:11:27.825Z,21.80
2022-08-19T17:13:56.725Z,24.88
2022-08-19T17:16:26.039Z,23.80
2022-08-19T17:18:54.290Z,24.92
2022-08-19T17:21:23.752Z,22.05
2022-08-19T17:23:50.522Z,21.92
2022-08-19T17:26:18.593Z,20.58
2022-08-19T17:28:49.590Z,24.85
2022-08-19T17:31:17.517Z,23.92
2022-08-19T17:33:48.121Z,23.65
2022-08-19T17:36:26.324Z,22.23
2022-08-19T17:38:55.464Z,20.50
2022-08-19T17:41:24.199Z,23.95
2022-08-19T17:43:52.139Z,22.98
2022-08-19T17:46:20.300Z,22.90
2022-08-19T17:48:54.602Z,24.63
2022-08-19T17:51:33.419Z,23.08
2022-08-19T17:54:02.194Z,20.80
2022-08-19T17:56:28.789Z,24.52
2022-08-19T17:59:00.691Z,22.55
2022-08-19T18:01:39.017Z,22.02
2022-08-19T18:04:17.353Z,22.88
2022-08-19T18:06:46.629Z,22.73
2022-08-19T18:09:24.716Z,26.73
2022-08-19T18:11:53.328Z,20.45
2022-08-19T18:14:32.754Z,21.67
2022-08-19T18:17:05.379Z,22.15
2022-08-19T18:19:41.292Z,18.88
2022-08-19T18:22:22.329Z,17.38
2022-08-19T18:24:48.954Z,18.15
2022-08-19T18:27:15.470Z,20.98
2022-08-19T18:29:41.981Z,19.00
2022-08-19T18:32:14.722Z,18.23
2022-08-19T18:34:44.054Z,16.77
2022-08-19T18:37:10.918Z,18.10
2022-08-19T18:39:56.471Z,19.20
2022-08-19T18:42:41.531Z,16.15
2022-08-19T18:45:28.382Z,18.20
2022-08-19T18:48:27.322Z,17.42
2022-08-19T18:50:57.191Z,17.38
2022-08-19T18:53:29.828Z,17.17
2022-08-19T18:55:57.543Z,17.70
2022-08-19T18:58:32.188Z,17.10
2022-08-19T19:01:00.357Z,15.20
2022-08-19T19:03:29.730Z,18.00
2022-08-19T19:05:56.226Z,15.95
2022-08-19T19:08:27.178Z,17.98
2022-08-19T19:10:55.813Z,17.60
2022-08-19T19:13:28.894Z,16.48
2022-08-19T19:15:55.445Z,16.65
2022-08-19T19:18:21.987Z,17.58
2022-08-19T19:20:48.494Z,20.05
2022-08-19T19:23:15.454Z,17.15
2022-08-19T19:25:49.789Z,17.23
2022-08-19T19:28:25.179Z,16.20
2022-08-19T19:30:54.259Z,15.80
2022-08-19T19:33:22.417Z,17.42
2022-08-19T19:35:49.026Z,16.35
2022-08-19T19:38:15.810Z,17.25
2022-08-19T19:40:42.343Z,17.10
2022-08-19T19:43:13.277Z,17.17
2022-08-19T19:45:39.906Z,17.13
2022-08-19T19:48:06.743Z,15.27
2022-08-19T19:50:33.275Z,15.18
2022-08-19T19:53:04.162Z,15.60
2022-08-19T19:55:30.775Z,16.05
2022-08-19T19:58:00.174Z,15.38
2022-08-19T20:00:26.667Z,15.77
2022-08-19T20:02:56.001Z,13.25
2022-08-19T20:05:23.915Z,13.65
2022-08-19T20:08:11.077Z,13.98
2022-08-19T20:10:38.110Z,12.52
2022-08-19T20:13:07.469Z,12.60
2022-08-19T20:15:35.455Z,13.43
2022-08-19T20:18:04.758Z,17.00
2022-08-19T20:20:31.734Z,14.40
2022-08-19T20:22:58.459Z,11.88
2022-08-19T20:25:25.171Z,15.50
2022-08-19T20:27:51.775Z,12.27
2022-08-19T20:30:21.269Z,11.75
2022-08-19T20:32:50.725Z,13.20
2022-08-19T20:35:19.415Z,12.45
2022-08-19T20:37:46.828Z,11.65
2022-08-19T20:40:14.899Z,15.43
2022-08-19T20:42:43.494Z,14.35
2022-08-19T20:45:22.627Z,13.95
2022-08-19T20:47:59.142Z,12.50
2022-08-19T20:50:26.142Z,12.60
2022-08-19T20:52:56.550Z,16.85
2022-08-19T20:55:23.203Z,12.27
2022-08-19T20:57:49.697Z,12.00
2022-08-19T21:00:16.418Z,14.55
2022-08-19T21:02:42.890Z,10.55
2022-08-19T21:05:09.698Z,10.80
2022-08-19T21:07:39.562Z,13.40
2022-08-19T21:10:07.152Z,13.82
2022-08-19T21:12:33.791Z,12.38
2022-08-19T21:15:01.797Z,14.95
2022-08-19T21:17:28.356Z,11.63
2022-08-19T21:19:54.893Z,12.55
2022-08-19T21:22:21.602Z,12.05
2022-08-19T21:24:49.357Z,12.48
2022-08-19T21:27:16.053Z,14.52
2022-08-19T21:29:43.026Z,14.27
2022-08-19T21:32:14.233Z,12.27
2022-08-19T21:34:44.052Z,12.45
2022-08-19T21:37:19.938Z,14.65
2022-08-19T21:39:52.693Z,11.10
2022-08-19T21:42:19.429Z,12.32
2022-08-19T21:44:46.203Z,11.68
2022-08-19T21:47:12.875Z,15.65
2022-08-19T21:49:39.962Z,13.43
2022-08-19T21:52:06.981Z,13.27
2022-08-19T21:54:37.882Z,14.90
2022-08-19T21:57:07.029Z,14.65
2022-08-19T21:59:39.688Z,12.57
2022-08-19T22:02:19.896Z,13.55
2022-08-19T22:04:53.485Z,11.93
2022-08-19T22:07:21.989Z,16.83
2022-08-19T22:09:50.617Z,14.05
2022-08-19T22:12:24.846Z,15.32
2022-08-19T22:14:52.158Z,17.33
2022-08-19T22:17:19.618Z,12.70
2022-08-19T22:19:46.561Z,15.80
2022-08-19T22:22:13.481Z,14.07
2022-08-19T22:24:41.173Z,16.40
2022-08-19T22:27:08.679Z,16.90
2022-08-19T22:29:36.484Z,11.68
2022-08-19T22:32:26.614Z,12.77
2022-08-19T22:34:51.805Z,17.45
2022-08-19T22:37:18.519Z,12.05
2022-08-19T22:39:45.595Z,14.50
2022-08-19T22:42:12.425Z,16.98
2022-08-19T22:44:39.501Z,19.75
2022-08-19T22:47:06.147Z,21.52
2022-08-19T22:49:32.671Z,14.93
2022-08-19T22:52:17.851Z,15.02
2022-08-19T22:54:55.165Z,12.20
2022-08-19T22:57:22.659Z,18.73
2022-08-19T22:59:51.312Z,13.52
2022-08-19T23:02:28.194Z,15.52
2022-08-19T23:04:55.760Z,17.13
2022-08-19T23:07:23.496Z,13.45
2022-08-19T23:09:50.547Z,13.52
2022-08-19T23:12:30.541Z,13.63
2022-08-19T23:15:11.211Z,14.15
2022-08-19T23:17:38.098Z,14.57
2022-08-19T23:20:06.905Z,15.45
2022-08-19T23:22:35.078Z,14.88
2022-08-19T23:25:05.676Z,12.57
2022-08-19T23:27:51.745Z,14.35
2022-08-19T23:30:27.391Z,15.30
2022-08-19T23:33:12.677Z,12.25
2022-08-19T23:35:41.059Z,13.38
2022-08-19T23:38:09.017Z,15.55
2022-08-19T23:40:37.293Z,17.00
2022-08-19T23:43:08.179Z,13.57
2022-08-19T23:45:40.525Z,17.10
2022-08-19T23:48:10.191Z,19.45
2022-08-19T23:50:38.793Z,13.98
2022-08-19T23:53:13.337Z,12.82
2022-08-19T23:55:43.810Z,14.10
2022-08-19T23:58:11.401Z,18.80
